Time;durP1;ratioP1;P1;durP2;ratioP2;P2;SDS_P1;SDS_P2;PMS_P1;PMS_P2;Temp;Humidity;BMP_temperature;BMP_pressure;BME280_temperature;BME280_humidity;BME280_pressure;Samples;Min_cycle;Max_cycle;Signal;HPM_P1;HPM_P2
2020/12/31 00:02:19;;;;;;;;;;;5.10;78.60;;;;;;4908060;28;19934;-42
2020/12/31 00:04:45;;;;;;;;;;;5.10;78.60;;;;;;4919550;28;20419;-43
2020/12/31 00:07:11;;;;;;;;;;;5.10;78.70;;;;;;4922876;28;19980;-43
2020/12/31 00:09:38;;;;;;;;;;;5.10;78.80;;;;;;4905643;28;19954;-42
2020/12/31 00:12:05;;;;;;;;;;;5.10;78.70;;;;;;4923717;28;20348;-43
2020/12/31 00:14:32;;;;;;;;;;;5.10;78.80;;;;;;4923910;28;20020;-43
2020/12/31 00:16:59;;;;;;;;;;;5.10;78.70;;;;;;4915139;28;19937;-43
2020/12/31 00:19:26;;;;;;;;;;;5.00;78.60;;;;;;4931595;28;20001;-43
2020/12/31 00:21:52;;;;;;;;;;;5.00;78.80;;;;;;4925257;28;19930;-42
2020/12/31 00:24:19;;;;;;;;;;;5.00;78.90;;;;;;4928454;28;21107;-43
2020/12/31 00:26:46;;;;;;;;;;;5.10;78.90;;;;;;4929482;28;20024;-42
2020/12/31 00:29:13;;;;;;;;;;;5.00;78.70;;;;;;4936621;28;20404;-43
2020/12/31 00:31:39;;;;;;;;;;;5.10;78.60;;;;;;4930480;28;20374;-42
2020/12/31 00:34:05;;;;;;;;;;;5.10;78.70;;;;;;4925847;28;19938;-42
2020/12/31 00:36:32;;;;;;;;;;;5.10;78.70;;;;;;4932478;28;19933;-44
2020/12/31 00:38:59;;;;;;;;;;;5.10;78.70;;;;;;4920438;28;19930;-44
2020/12/31 00:41:25;;;;;;;;;;;5.10;78.80;;;;;;4929905;28;20413;-43
2020/12/31 00:43:51;;;;;;;;;;;5.20;78.80;;;;;;4913197;28;19934;-43
2020/12/31 00:46:17;;;;;;;;;;;5.20;78.70;;;;;;4931924;28;19952;-44
2020/12/31 00:48:45;;;;;;;;;;;5.30;78.50;;;;;;4934885;28;19956;-43
2020/12/31 00:51:11;;;;;;;;;;;5.30;78.40;;;;;;4930575;28;19933;-42
2020/12/31 00:53:38;;;;;;;;;;;5.30;78.50;;;;;;4927869;28;22352;-44
2020/12/31 00:56:04;;;;;;;;;;;5.30;78.40;;;;;;4932164;28;19926;-43
2020/12/31 00:58:30;;;;;;;;;;;5.20;78.50;;;;;;4935281;28;19926;-42
2020/12/31 01:00:56;;;;;;;;;;;5.30;78.30;;;;;;4928708;28;20290;-44
2020/12/31 01:03:23;;;;;;;;;;;5.30;78.20;;;;;;4923429;28;21685;-43
2020/12/31 01:05:52;;;;;;;;;;;5.30;78.10;;;;;;4929602;28;19996;-43
2020/12/31 01:08:18;;;;;;;;;;;5.10;78.10;;;;;;4931796;28;20688;-43
2020/12/31 01:10:44;;;;;;;;;;;5.10;78.60;;;;;;4926535;28;19940;-43
2020/12/31 01:13:12;;;;;;;;;;;5.10;78.60;;;;;;4924666;28;20389;-44
2020/12/31 01:15:38;;;;;;;;;;;5.00;78.60;;;;;;4929850;28;19937;-43
2020/12/31 01:18:04;;;;;;;;;;;5.00;78.70;;;;;;4930474;28;20437;-43
2020/12/31 01:20:31;;;;;;;;;;;5.00;78.80;;;;;;4928127;28;19933;-42
2020/12/31 01:22:57;;;;;;;;;;;4.90;79.10;;;;;;4923737;28;19944;-43
2020/12/31 01:25:24;;;;;;;;;;;4.90;79.40;;;;;;4908819;28;19929;-44
2020/12/31 01:27:50;;;;;;;;;;;4.80;79.40;;;;;;4934331;28;20362;-43
2020/12/31 01:30:18;;;;;;;;;;;4.80;79.60;;;;;;4928103;28;19940;-44
2020/12/31 01:32:44;;;;;;;;;;;4.80;79.50;;;;;;4920948;28;19992;-44
2020/12/31 01:35:10;;;;;;;;;;;4.70;79.70;;;;;;4929879;28;20115;-42
2020/12/31 01:37:37;;;;;;;;;;;4.70;79.60;;;;;;4933742;28;20409;-44
2020/12/31 01:40:04;;;;;;;;;;;4.80;79.70;;;;;;4914865;28;20254;-43
2020/12/31 01:42:30;;;;;;;;;;;4.70;79.60;;;;;;4904747;28;19934;-44
2020/12/31 01:44:58;;;;;;;;;;;4.70;79.70;;;;;;4930895;28;19937;-43
2020/12/31 01:47:25;;;;;;;;;;;4.70;79.80;;;;;;4933876;28;19937;-43
2020/12/31 01:49:52;;;;;;;;;;;4.80;79.60;;;;;;4927769;28;19930;-43
2020/12/31 01:52:19;;;;;;;;;;;4.80;79.30;;;;;;4926522;28;19941;-43
2020/12/31 01:54:47;;;;;;;;;;;4.70;79.40;;;;;;4928217;28;19934;-43
2020/12/31 01:57:13;;;;;;;;;;;4.70;79.50;;;;;;4932021;28;20397;-42
2020/12/31 01:59:40;;;;;;;;;;;4.60;79.50;;;;;;4935243;28;19929;-43
2020/12/31 02:02:07;;;;;;;;;;;4.50;79.60;;;;;;4923185;28;19929;-44
2020/12/31 02:04:35;;;;;;;;;;;4.50;79.70;;;;;;4930952;28;19934;-43
2020/12/31 02:07:01;;;;;;;;;;;4.50;79.80;;;;;;4929038;28;19933;-42
2020/12/31 02:09:28;;;;;;;;;;;4.40;79.90;;;;;;4930349;28;20472;-43
2020/12/31 02:11:55;;;;;;;;;;;4.40;80.10;;;;;;4929322;28;19957;-44
2020/12/31 02:14:24;;;;;;;;;;;4.50;80.10;;;;;;4928036;28;20062;-44
2020/12/31 02:16:50;;;;;;;;;;;4.60;80.10;;;;;;4928962;28;19930;-43
2020/12/31 02:19:17;;;;;;;;;;;4.60;79.60;;;;;;4924444;28;19941;-42
2020/12/31 02:21:48;;;;;;;;;;;4.70;79.50;;;;;;4929755;28;20334;-43
2020/12/31 02:24:16;;;;;;;;;;;4.70;79.40;;;;;;4932942;28;19930;-43
2020/12/31 02:26:43;;;;;;;;;;;4.70;79.30;;;;;;4927103;28;19933;-42
2020/12/31 02:29:10;;;;;;;;;;;4.70;79.10;;;;;;4930549;28;19930;-42
2020/12/31 02:31:41;;;;;;;;;;;4.80;79.10;;;;;;4918056;28;20347;-43
2020/12/31 02:34:08;;;;;;;;;;;4.80;78.90;;;;;;4929401;28;19934;-42
2020/12/31 02:36:36;;;;;;;;;;;4.80;78.80;;;;;;4935765;28;19930;-43
2020/12/31 02:39:04;;;;;;;;;;;4.80;78.80;;;;;;4928886;28;19940;-43
2020/12/31 02:41:32;;;;;;;;;;;4.80;78.60;;;;;;4933145;28;19926;-43
2020/12/31 02:43:58;;;;;;;;;;;4.80;78.50;;;;;;4932039;28;20418;-44
2020/12/31 02:46:24;;;;;;;;;;;4.80;78.30;;;;;;4937832;28;20024;-43
2020/12/31 02:48:50;;;;;;;;;;;4.80;78.10;;;;;;4930485;28;20237;-43
2020/12/31 02:51:18;;;;;;;;;;;4.80;78.10;;;;;;4931099;28;19930;-42
2020/12/31 02:53:46;;;;;;;;;;;4.80;78.00;;;;;;4927327;28;23877;-44
2020/12/31 02:56:17;;;;;;;;;;;4.80;78.00;;;;;;4930155;28;20384;-43
2020/12/31 02:58:44;;;;;;;;;;;4.80;78.10;;;;;;4932245;28;20345;-44
2020/12/31 03:01:15;;;;;;;;;;;4.80;78.30;;;;;;4916186;28;20064;-44
2020/12/31 03:03:41;;;;;;;;;;;4.70;78.00;;;;;;4935221;28;19934;-43
2020/12/31 03:06:08;;;;;;;;;;;4.70;77.80;;;;;;4934235;28;19926;-42
2020/12/31 03:08:34;;;;;;;;;;;4.70;77.90;;;;;;4931907;28;19940;-43
2020/12/31 03:11:02;;;;;;;;;;;4.70;77.90;;;;;;4928399;28;20016;-43
2020/12/31 03:13:28;;;;;;;;;;;4.70;78.00;;;;;;4933164;28;19933;-42
2020/12/31 03:15:55;;;;;;;;;;;4.70;78.00;;;;;;4927376;28;19930;-42
2020/12/31 03:18:22;;;;;;;;;;;4.70;78.10;;;;;;4932273;28;19960;-43
2020/12/31 03:20:49;;;;;;;;;;;4.70;78.00;;;;;;4926487;28;20370;-43
2020/12/31 03:23:16;;;;;;;;;;;4.60;77.90;;;;;;4932885;28;20278;-44
2020/12/31 03:25:42;;;;;;;;;;;4.60;78.00;;;;;;4929551;28;19930;-44
2020/12/31 03:28:09;;;;;;;;;;;4.60;78.20;;;;;;4931458;28;19937;-46
2020/12/31 03:30:36;;;;;;;;;;;4.60;78.00;;;;;;4923996;28;19930;-46
2020/12/31 03:33:03;;;;;;;;;;;4.60;78.10;;;;;;4931651;28;19926;-43
2020/12/31 03:35:29;;;;;;;;;;;4.60;78.10;;;;;;4927740;28;19988;-45
2020/12/31 03:37:56;;;;;;;;;;;4.60;78.20;;;;;;4930251;28;20400;-47
2020/12/31 03:40:23;;;;;;;;;;;4.60;78.20;;;;;;4910221;28;20056;-44
2020/12/31 03:42:49;;;;;;;;;;;4.60;78.10;;;;;;4931158;28;19960;-43
2020/12/31 03:45:20;;;;;;;;;;;4.60;78.10;;;;;;4932721;28;19933;-44
2020/12/31 03:47:46;;;;;;;;;;;4.60;78.20;;;;;;4928333;28;20438;-44
2020/12/31 03:50:13;;;;;;;;;;;4.60;78.10;;;;;;4932624;28;19948;-43
2020/12/31 03:52:40;;;;;;;;;;;4.60;78.20;;;;;;4931364;28;19930;-44
2020/12/31 03:55:07;;;;;;;;;;;4.60;78.10;;;;;;4910088;28;19941;-43
2020/12/31 03:57:36;;;;;;;;;;;4.60;77.90;;;;;;4928891;28;19934;-43
2020/12/31 04:00:03;;;;;;;;;;;4.60;78.00;;;;;;4928845;28;19938;-44
2020/12/31 04:02:29;;;;;;;;;;;4.50;77.90;;;;;;4930451;28;20286;-42
2020/12/31 04:04:56;;;;;;;;;;;4.50;78.10;;;;;;4933383;28;19926;-42
2020/12/31 04:07:28;;;;;;;;;;;4.60;78.20;;;;;;4928300;28;20401;-42
2020/12/31 04:09:54;;;;;;;;;;;4.50;78.00;;;;;;4923466;28;19933;-44
2020/12/31 04:12:22;;;;;;;;;;;4.60;78.00;;;;;;4917528;28;20064;-43
2020/12/31 04:14:50;;;;;;;;;;;4.60;78.10;;;;;;4933073;28;19933;-42
2020/12/31 04:17:16;;;;;;;;;;;4.60;78.10;;;;;;4908322;28;20543;-42
2020/12/31 04:19:42;;;;;;;;;;;4.60;78.00;;;;;;4926864;28;20279;-43
2020/12/31 04:22:09;;;;;;;;;;;4.60;77.90;;;;;;4927407;28;19934;-43
2020/12/31 04:24:41;;;;;;;;;;;4.60;77.80;;;;;;4912186;28;19932;-43
2020/12/31 04:27:07;;;;;;;;;;;4.60;77.90;;;;;;4930602;28;19934;-44
2020/12/31 04:29:33;;;;;;;;;;;4.60;77.80;;;;;;4906646;28;19926;-42
2020/12/31 04:31:59;;;;;;;;;;;4.70;77.80;;;;;;4928955;28;20003;-44
2020/12/31 04:34:25;;;;;;;;;;;4.70;77.60;;;;;;4889697;28;19938;-43
2020/12/31 04:36:52;;;;;;;;;;;4.70;77.50;;;;;;4933656;28;19926;-46
2020/12/31 04:39:18;;;;;;;;;;;4.70;77.60;;;;;;4905527;28;19926;-44
2020/12/31 04:41:45;;;;;;;;;;;4.70;77.20;;;;;;4928182;28;19926;-46
2020/12/31 04:44:14;;;;;;;;;;;4.70;77.30;;;;;;4927821;28;20293;-42
2020/12/31 04:46:41;;;;;;;;;;;4.70;77.10;;;;;;4932727;28;19929;-47
2020/12/31 04:49:12;;;;;;;;;;;4.70;77.20;;;;;;4923261;28;20027;-44
2020/12/31 04:51:38;;;;;;;;;;;4.80;77.00;;;;;;4915304;28;19930;-44
2020/12/31 04:54:06;;;;;;;;;;;4.70;76.90;;;;;;4923995;28;20019;-45
2020/12/31 04:56:36;;;;;;;;;;;4.70;77.00;;;;;;4933686;28;19949;-44
2020/12/31 04:59:06;;;;;;;;;;;4.70;77.20;;;;;;4926845;28;20295;-43
2020/12/31 05:01:33;;;;;;;;;;;4.70;77.00;;;;;;4926702;28;19934;-43
2020/12/31 05:04:02;;;;;;;;;;;4.70;77.10;;;;;;4924390;28;19934;-45
2020/12/31 05:06:34;;;;;;;;;;;4.70;77.10;;;;;;4931496;28;19933;-46
2020/12/31 05:09:13;;;;;;;;;;;4.60;77.20;;;;;;4923596;28;23263;-43
2020/12/31 05:11:51;;;;;;;;;;;4.60;77.80;;;;;;4929191;28;19932;-45
2020/12/31 05:14:27;;;;;;;;;;;4.60;78.00;;;;;;4923654;28;21639;-43
2020/12/31 05:16:53;;;;;;;;;;;4.60;77.90;;;;;;4925926;28;19934;-44
2020/12/31 05:19:47;;;;;;;;;;;4.60;77.70;;;;;;4934370;28;19991;-44
2020/12/31 05:22:17;;;;;;;;;;;4.70;77.80;;;;;;4925870;28;19926;-47
2020/12/31 05:24:48;;;;;;;;;;;4.70;77.70;;;;;;4927120;28;19930;-45
2020/12/31 05:27:15;;;;;;;;;;;4.70;77.60;;;;;;4927604;28;20378;-43
2020/12/31 05:29:52;;;;;;;;;;;4.70;77.60;;;;;;4923598;28;23225;-44
2020/12/31 05:32:22;;;;;;;;;;;4.70;77.70;;;;;;4923008;28;19934;-46
2020/12/31 05:34:49;;;;;;;;;;;4.70;77.80;;;;;;4929812;28;19936;-45
2020/12/31 05:37:20;;;;;;;;;;;4.70;78.00;;;;;;4931325;28;20406;-46
2020/12/31 05:39:57;;;;;;;;;;;4.70;78.00;;;;;;4927725;28;19941;-47
2020/12/31 05:42:27;;;;;;;;;;;4.70;77.90;;;;;;4910863;28;20500;-45
2020/12/31 05:44:57;;;;;;;;;;;4.70;77.80;;;;;;4930740;28;20781;-45
2020/12/31 05:47:24;;;;;;;;;;;4.70;77.70;;;;;;4925969;28;20020;-44
2020/12/31 05:49:52;;;;;;;;;;;4.80;77.60;;;;;;4927323;28;19926;-45
2020/12/31 05:52:33;;;;;;;;;;;4.70;77.50;;;;;;4926035;28;21314;-45
2020/12/31 05:55:00;;;;;;;;;;;4.70;77.70;;;;;;4910672;28;21076;-46
2020/12/31 05:57:46;;;;;;;;;;;4.70;77.70;;;;;;4927830;28;20267;-45
2020/12/31 06:00:19;;;;;;;;;;;4.70;77.80;;;;;;4925613;28;20390;-47
2020/12/31 06:02:56;;;;;;;;;;;4.70;77.70;;;;;;4925437;28;19937;-45
2020/12/31 06:05:23;;;;;;;;;;;4.70;77.70;;;;;;4925830;28;19926;-46
2020/12/31 06:07:56;;;;;;;;;;;4.70;77.70;;;;;;4901998;28;19988;-45
2020/12/31 06:10:23;;;;;;;;;;;4.70;77.70;;;;;;4924263;28;19945;-45
2020/12/31 06:12:56;;;;;;;;;;;4.70;77.90;;;;;;4925360;28;19937;-47
2020/12/31 06:15:25;;;;;;;;;;;4.70;78.10;;;;;;4924647;28;20291;-45
2020/12/31 06:17:55;;;;;;;;;;;4.60;78.00;;;;;;4927266;28;19941;-45
2020/12/31 06:20:23;;;;;;;;;;;4.60;78.20;;;;;;4922796;28;19934;-45
2020/12/31 06:23:01;;;;;;;;;;;4.60;78.30;;;;;;4926572;28;19988;-45
2020/12/31 06:25:33;;;;;;;;;;;4.60;78.50;;;;;;4923959;28;19925;-44
2020/12/31 06:28:11;;;;;;;;;;;4.60;78.50;;;;;;4929640;28;20108;-42
2020/12/31 06:30:42;;;;;;;;;;;4.60;78.50;;;;;;4926925;28;19930;-44
2020/12/31 06:33:13;;;;;;;;;;;4.50;78.50;;;;;;4926780;28;19961;-46
2020/12/31 06:35:41;;;;;;;;;;;4.50;78.60;;;;;;4922805;28;19925;-44
2020/12/31 06:38:15;;;;;;;;;;;4.50;78.70;;;;;;4927378;28;19933;-43
2020/12/31 06:40:41;;;;;;;;;;;4.40;79.00;;;;;;4927944;28;19930;-45
2020/12/31 06:43:12;;;;;;;;;;;4.40;79.30;;;;;;4925311;28;26528;-42
2020/12/31 06:45:39;;;;;;;;;;;4.40;79.40;;;;;;4928697;28;22667;-45
2020/12/31 06:48:24;;;;;;;;;;;4.40;79.40;;;;;;4925411;28;19926;-44
2020/12/31 06:51:03;;;;;;;;;;;4.40;79.60;;;;;;4926737;28;20369;-45
2020/12/31 06:53:31;;;;;;;;;;;4.30;79.90;;;;;;4923568;28;19926;-45
2020/12/31 06:55:58;;;;;;;;;;;4.30;80.00;;;;;;4928543;28;19941;-45
2020/12/31 06:58:24;;;;;;;;;;;4.30;80.20;;;;;;4928977;28;20386;-45
2020/12/31 07:00:52;;;;;;;;;;;4.30;80.30;;;;;;4932186;28;19930;-45
2020/12/31 07:03:36;;;;;;;;;;;4.30;80.40;;;;;;4915061;28;19925;-45
2020/12/31 07:06:33;;;;;;;;;;;4.30;80.50;;;;;;4929851;28;19989;-45
2020/12/31 07:09:03;;;;;;;;;;;4.30;80.50;;;;;;4921945;28;21360;-44
2020/12/31 07:11:30;;;;;;;;;;;4.30;80.40;;;;;;4928739;28;19940;-45
2020/12/31 07:13:57;;;;;;;;;;;4.30;80.50;;;;;;4931687;28;19933;-43
2020/12/31 07:16:52;;;;;;;;;;;4.30;80.50;;;;;;4929614;28;20286;-45
2020/12/31 07:19:19;;;;;;;;;;;4.30;80.60;;;;;;4924647;28;19949;-45
2020/12/31 07:21:46;;;;;;;;;;;4.30;80.60;;;;;;4910057;28;19927;-43
2020/12/31 07:24:19;;;;;;;;;;;4.30;80.70;;;;;;4926872;28;19929;-43
2020/12/31 07:26:46;;;;;;;;;;;4.30;80.70;;;;;;4911767;28;19972;-44
2020/12/31 07:29:12;;;;;;;;;;;4.30;80.80;;;;;;4914938;28;19934;-46
2020/12/31 07:31:42;;;;;;;;;;;4.30;80.70;;;;;;4934614;28;19933;-43
2020/12/31 07:34:24;;;;;;;;;;;4.20;80.90;;;;;;4929420;28;20036;-42
2020/12/31 07:36:57;;;;;;;;;;;4.20;81.00;;;;;;4933641;28;19930;-45
2020/12/31 07:39:23;;;;;;;;;;;4.20;81.30;;;;;;4931287;28;19980;-46
2020/12/31 07:42:11;;;;;;;;;;;4.20;81.30;;;;;;4915890;28;19932;-42
2020/12/31 07:44:52;;;;;;;;;;;4.20;81.40;;;;;;4930139;28;19930;-45
2020/12/31 07:47:20;;;;;;;;;;;4.20;81.50;;;;;;4931171;28;20354;-43
2020/12/31 07:49:47;;;;;;;;;;;4.20;81.60;;;;;;4928202;28;19933;-44
2020/12/31 07:52:14;;;;;;;;;;;4.20;81.50;;;;;;4929581;28;20359;-43
2020/12/31 07:54:41;;;;;;;;;;;4.20;81.60;;;;;;4927953;28;19930;-42
2020/12/31 07:57:11;;;;;;;;;;;4.20;81.60;;;;;;4920711;28;20757;-45
2020/12/31 07:59:40;;;;;;;;;;;4.20;81.70;;;;;;4925737;28;19941;-44
2020/12/31 08:02:09;;;;;;;;;;;4.30;81.50;;;;;;4926372;28;19936;-43
2020/12/31 08:04:36;;;;;;;;;;;4.30;81.40;;;;;;4924511;28;19933;-45
2020/12/31 08:07:04;;;;;;;;;;;4.30;81.40;;;;;;4928604;28;19980;-44
2020/12/31 08:09:30;;;;;;;;;;;4.20;81.40;;;;;;4915299;28;20970;-44
2020/12/31 08:11:57;;;;;;;;;;;4.20;81.40;;;;;;4927385;28;19968;-43
2020/12/31 08:14:23;;;;;;;;;;;4.20;81.30;;;;;;4914012;28;20151;-45
2020/12/31 08:17:00;;;;;;;;;;;4.20;81.50;;;;;;4928145;28;19940;-44
2020/12/31 08:19:27;;;;;;;;;;;4.20;81.40;;;;;;4923816;28;19932;-46
2020/12/31 08:22:00;;;;;;;;;;;4.20;81.40;;;;;;4927141;28;19941;-44
2020/12/31 08:24:28;;;;;;;;;;;4.20;81.40;;;;;;4917151;28;20314;-46
2020/12/31 08:26:56;;;;;;;;;;;4.20;81.40;;;;;;4924607;28;22750;-42
2020/12/31 08:29:25;;;;;;;;;;;4.20;81.60;;;;;;4928996;28;19934;-44
2020/12/31 08:31:52;;;;;;;;;;;4.20;81.40;;;;;;4931336;28;19933;-45
2020/12/31 08:34:24;;;;;;;;;;;4.20;81.40;;;;;;4933005;28;19940;-45
2020/12/31 08:36:52;;;;;;;;;;;4.20;81.50;;;;;;4930945;28;19934;-45
2020/12/31 08:39:19;;;;;;;;;;;4.20;81.70;;;;;;4927182;28;20449;-42
2020/12/31 08:41:56;;;;;;;;;;;4.20;81.60;;;;;;4926692;28;19955;-45
2020/12/31 08:44:23;;;;;;;;;;;4.20;81.70;;;;;;4928152;28;19934;-43
2020/12/31 08:46:49;;;;;;;;;;;4.20;81.90;;;;;;4926698;28;20009;-42
2020/12/31 08:49:23;;;;;;;;;;;4.30;81.80;;;;;;4931762;28;20862;-45
2020/12/31 08:51:50;;;;;;;;;;;4.30;81.70;;;;;;4927985;28;19941;-42
2020/12/31 08:54:16;;;;;;;;;;;4.40;81.40;;;;;;4929265;28;19940;-43
2020/12/31 08:56:43;;;;;;;;;;;4.40;81.20;;;;;;4935791;28;19953;-43
2020/12/31 08:59:17;;;;;;;;;;;4.40;81.20;;;;;;4928205;28;20031;-43
2020/12/31 09:01:47;;;;;;;;;;;4.30;81.30;;;;;;4925527;28;19969;-44
2020/12/31 09:04:20;;;;;;;;;;;4.30;81.10;;;;;;4929932;28;19934;-43
2020/12/31 09:06:47;;;;;;;;;;;4.30;80.80;;;;;;4925003;28;19930;-42
2020/12/31 09:09:18;;;;;;;;;;;4.30;81.00;;;;;;4926906;28;19981;-42
2020/12/31 09:11:57;;;;;;;;;;;4.30;81.20;;;;;;4929224;28;19933;-42
2020/12/31 09:14:23;;;;;;;;;;;4.30;81.00;;;;;;4931246;28;19930;-43
2020/12/31 09:16:50;;;;;;;;;;;4.20;81.30;;;;;;4927348;28;19934;-43
2020/12/31 09:19:17;;;;;;;;;;;4.20;81.30;;;;;;4927594;28;19930;-43
2020/12/31 09:21:44;;;;;;;;;;;4.20;81.40;;;;;;4932825;28;19926;-43
2020/12/31 09:24:22;;;;;;;;;;;4.20;81.40;;;;;;4925943;28;20377;-43
2020/12/31 09:26:51;;;;;;;;;;;4.20;81.40;;;;;;4932645;28;19980;-43
2020/12/31 09:29:18;;;;;;;;;;;4.20;81.30;;;;;;4929606;28;20430;-44
2020/12/31 09:31:47;;;;;;;;;;;4.20;81.10;;;;;;4932366;28;20066;-43
2020/12/31 09:34:14;;;;;;;;;;;4.20;81.20;;;;;;4924502;28;20370;-43
2020/12/31 09:36:40;;;;;;;;;;;4.20;81.10;;;;;;4932311;28;19940;-42
2020/12/31 09:39:06;;;;;;;;;;;4.20;81.20;;;;;;4931169;28;19930;-42
2020/12/31 09:41:33;;;;;;;;;;;4.10;81.20;;;;;;4931793;28;19933;-43
2020/12/31 09:44:01;;;;;;;;;;;4.10;81.10;;;;;;4929668;28;19926;-43
2020/12/31 09:46:28;;;;;;;;;;;4.00;81.20;;;;;;4931155;28;19930;-43
2020/12/31 09:48:55;;;;;;;;;;;4.00;81.30;;;;;;4929576;28;19933;-43
2020/12/31 09:51:22;;;;;;;;;;;4.00;81.50;;;;;;4923916;28;20434;-42
2020/12/31 09:53:51;;;;;;;;;;;3.90;81.80;;;;;;4921308;28;21809;-44
2020/12/31 09:56:18;;;;;;;;;;;4.00;81.90;;;;;;4927075;28;19930;-43
2020/12/31 09:58:45;;;;;;;;;;;3.90;82.00;;;;;;4928838;28;19933;-43
2020/12/31 10:01:11;;;;;;;;;;;3.90;82.30;;;;;;4932784;28;19926;-43
2020/12/31 10:03:38;;;;;;;;;;;3.90;82.50;;;;;;4931565;28;19926;-42
2020/12/31 10:06:05;;;;;;;;;;;3.90;82.70;;;;;;4925708;28;20059;-43
2020/12/31 10:08:32;;;;;;;;;;;3.90;82.60;;;;;;4929222;28;19926;-43
2020/12/31 10:11:00;;;;;;;;;;;3.90;82.60;;;;;;4916777;28;19932;-43
2020/12/31 10:13:27;;;;;;;;;;;3.90;82.60;;;;;;4930961;28;19926;-43
2020/12/31 10:15:54;;;;;;;;;;;3.90;82.60;;;;;;4934724;28;20008;-43
2020/12/31 10:18:23;;;;;;;;;;;3.90;82.70;;;;;;4924413;28;19929;-42
2020/12/31 10:20:52;;;;;;;;;;;3.90;82.80;;;;;;4926881;28;20070;-43
2020/12/31 10:23:18;;;;;;;;;;;3.90;83.00;;;;;;4930754;28;19934;-42
2020/12/31 10:25:46;;;;;;;;;;;3.90;83.10;;;;;;4930621;28;19925;-43
2020/12/31 10:28:12;;;;;;;;;;;3.90;83.00;;;;;;4914681;28;19930;-43
2020/12/31 10:30:39;;;;;;;;;;;3.90;83.30;;;;;;4929439;28;19929;-42
2020/12/31 10:33:05;;;;;;;;;;;3.90;83.20;;;;;;4929350;28;19934;-43
2020/12/31 10:35:31;;;;;;;;;;;3.90;83.00;;;;;;4929065;28;19948;-43
2020/12/31 10:37:59;;;;;;;;;;;3.90;83.10;;;;;;4931466;28;19926;-42
2020/12/31 10:40:25;;;;;;;;;;;3.90;83.40;;;;;;4926453;28;19929;-43
2020/12/31 10:42:51;;;;;;;;;;;3.90;83.40;;;;;;4934228;28;22742;-42
2020/12/31 10:45:18;;;;;;;;;;;3.90;83.20;;;;;;4932189;28;20016;-42
2020/12/31 10:47:44;;;;;;;;;;;3.90;83.20;;;;;;4934471;28;19939;-42
2020/12/31 10:50:11;;;;;;;;;;;3.90;83.20;;;;;;4917676;28;19926;-42
2020/12/31 10:52:37;;;;;;;;;;;3.90;83.40;;;;;;4932220;28;19965;-43
2020/12/31 10:55:04;;;;;;;;;;;3.90;83.30;;;;;;4930200;28;19933;-43
2020/12/31 10:57:30;;;;;;;;;;;3.90;83.50;;;;;;4935971;28;19926;-43
2020/12/31 10:59:56;;;;;;;;;;;4.00;83.60;;;;;;4914877;28;19926;-42
2020/12/31 11:02:22;;;;;;;;;;;4.00;83.50;;;;;;4920849;28;20028;-43
2020/12/31 11:04:48;;;;;;;;;;;4.00;83.10;;;;;;4933075;28;19934;-43
2020/12/31 11:07:15;;;;;;;;;;;4.00;83.50;;;;;;4914469;28;19933;-42
2020/12/31 11:09:41;;;;;;;;;;;4.10;83.80;;;;;;4935414;28;19936;-43
2020/12/31 11:12:07;;;;;;;;;;;4.10;83.70;;;;;;4914580;28;19933;-43
2020/12/31 11:14:34;;;;;;;;;;;4.10;83.50;;;;;;4931440;28;20013;-43
2020/12/31 11:17:01;;;;;;;;;;;4.10;83.50;;;;;;4933922;28;19933;-41
2020/12/31 11:19:28;;;;;;;;;;;4.10;83.60;;;;;;4927180;28;19934;-43
2020/12/31 11:21:54;;;;;;;;;;;4.10;83.30;;;;;;4929673;28;19934;-43
2020/12/31 11:24:20;;;;;;;;;;;4.10;83.60;;;;;;4906547;28;19936;-42
2020/12/31 11:26:49;;;;;;;;;;;4.10;83.80;;;;;;4928487;28;19930;-43
2020/12/31 11:29:16;;;;;;;;;;;4.20;83.60;;;;;;4926469;28;19969;-42
2020/12/31 11:31:46;;;;;;;;;;;4.20;83.60;;;;;;4928518;28;20054;-43
2020/12/31 11:34:25;;;;;;;;;;;4.20;83.70;;;;;;4916254;28;19932;-43
2020/12/31 11:36:52;;;;;;;;;;;4.20;83.60;;;;;;4933032;28;19940;-42
2020/12/31 11:39:18;;;;;;;;;;;4.20;83.30;;;;;;4934237;28;19926;-42
2020/12/31 11:41:45;;;;;;;;;;;4.20;83.30;;;;;;4932178;28;19934;-43
2020/12/31 11:44:11;;;;;;;;;;;4.20;83.50;;;;;;4928405;28;19929;-43
2020/12/31 11:46:37;;;;;;;;;;;4.20;83.30;;;;;;4930392;28;20123;-43
2020/12/31 11:49:03;;;;;;;;;;;4.20;83.30;;;;;;4927419;28;19984;-43
2020/12/31 11:51:30;;;;;;;;;;;4.20;83.20;;;;;;4915018;28;20442;-43
2020/12/31 11:53:58;;;;;;;;;;;4.20;83.20;;;;;;4926519;28;19948;-43
2020/12/31 11:56:24;;;;;;;;;;;4.20;82.80;;;;;;4913653;28;19934;-43
2020/12/31 11:58:51;;;;;;;;;;;4.20;83.00;;;;;;4913349;28;19930;-43
2020/12/31 12:01:18;;;;;;;;;;;4.20;83.10;;;;;;4930598;28;20294;-43
2020/12/31 12:03:44;;;;;;;;;;;4.20;83.20;;;;;;4926969;28;19929;-43
2020/12/31 12:06:10;;;;;;;;;;;4.20;83.20;;;;;;4931366;28;19940;-43
2020/12/31 12:08:37;;;;;;;;;;;4.20;83.10;;;;;;4927860;28;20009;-43
2020/12/31 12:11:04;;;;;;;;;;;4.20;82.90;;;;;;4930355;28;20305;-43
2020/12/31 12:13:33;;;;;;;;;;;4.20;83.00;;;;;;4924353;28;19980;-43
2020/12/31 12:15:59;;;;;;;;;;;4.20;83.20;;;;;;4929358;28;19933;-42
2020/12/31 12:18:26;;;;;;;;;;;4.20;83.20;;;;;;4934201;28;19925;-43
2020/12/31 12:21:00;;;;;;;;;;;4.20;83.10;;;;;;4935382;28;19969;-42
2020/12/31 12:23:27;;;;;;;;;;;4.20;83.00;;;;;;4930547;28;22666;-43
2020/12/31 12:25:53;;;;;;;;;;;4.20;83.00;;;;;;4913246;28;19925;-42
2020/12/31 12:28:20;;;;;;;;;;;4.20;83.10;;;;;;4933700;28;19953;-43
2020/12/31 12:30:46;;;;;;;;;;;4.20;83.10;;;;;;4926238;28;19933;-43
2020/12/31 12:33:12;;;;;;;;;;;4.20;83.00;;;;;;4920249;28;20048;-43
2020/12/31 12:35:39;;;;;;;;;;;4.20;83.00;;;;;;4931834;28;20421;-43
2020/12/31 12:38:07;;;;;;;;;;;4.20;82.90;;;;;;4929605;28;19981;-42
2020/12/31 12:40:34;;;;;;;;;;;4.20;82.80;;;;;;4931704;28;20349;-42
2020/12/31 12:43:00;;;;;;;;;;;4.30;82.70;;;;;;4919554;28;19930;-43
2020/12/31 12:45:27;;;;;;;;;;;4.20;82.50;;;;;;4935003;28;19929;-43
2020/12/31 12:47:53;;;;;;;;;;;4.20;82.50;;;;;;4920663;28;19932;-43
2020/12/31 12:50:19;;;;;;;;;;;4.20;82.50;;;;;;4907443;28;19940;-43
2020/12/31 12:52:46;;;;;;;;;;;4.20;82.30;;;;;;4925022;28;19934;-41
2020/12/31 12:55:12;;;;;;;;;;;4.20;82.20;;;;;;4928301;28;20434;-43
2020/12/31 12:57:40;;;;;;;;;;;4.20;82.20;;;;;;4928699;28;19934;-44
2020/12/31 13:00:07;;;;;;;;;;;4.20;82.30;;;;;;4925741;28;21783;-47
2020/12/31 13:02:33;;;;;;;;;;;4.20;82.30;;;;;;4921302;28;20726;-44
2020/12/31 13:05:00;;;;;;;;;;;4.20;82.20;;;;;;4909299;28;19932;-43
2020/12/31 13:07:28;;;;;;;;;;;4.20;82.20;;;;;;4932984;28;20382;-45
2020/12/31 13:09:54;;;;;;;;;;;4.20;82.20;;;;;;4926446;28;20362;-44
2020/12/31 13:12:22;;;;;;;;;;;4.20;82.20;;;;;;4927936;28;20068;-44
2020/12/31 13:14:49;;;;;;;;;;;4.20;82.30;;;;;;4928336;28;19988;-44
2020/12/31 13:17:15;;;;;;;;;;;4.20;82.20;;;;;;4934467;28;19926;-42
2020/12/31 13:19:41;;;;;;;;;;;4.20;82.30;;;;;;4926927;28;19930;-43
2020/12/31 13:22:07;;;;;;;;;;;4.20;82.40;;;;;;4924314;28;19934;-45
2020/12/31 13:24:33;;;;;;;;;;;4.20;82.60;;;;;;4928722;28;19926;-42
2020/12/31 13:27:00;;;;;;;;;;;4.20;82.70;;;;;;4934154;28;19932;-45
2020/12/31 13:29:27;;;;;;;;;;;4.20;82.90;;;;;;4908274;28;19926;-44
2020/12/31 13:31:55;;;;;;;;;;;4.20;83.00;;;;;;4922690;28;19934;-45
2020/12/31 13:34:21;;;;;;;;;;;4.20;83.00;;;;;;4901140;28;19930;-43
2020/12/31 13:36:51;;;;;;;;;;;4.30;83.00;;;;;;4928366;28;19933;-43
2020/12/31 13:39:17;;;;;;;;;;;4.30;83.10;;;;;;4926738;28;19952;-44
2020/12/31 13:41:44;;;;;;;;;;;4.30;83.00;;;;;;4924467;28;21629;-44
2020/12/31 13:44:11;;;;;;;;;;;4.40;83.20;;;;;;4925817;28;19925;-45
2020/12/31 13:46:39;;;;;;;;;;;4.40;83.10;;;;;;4929977;28;20020;-43
2020/12/31 13:49:05;;;;;;;;;;;4.40;83.20;;;;;;4926667;28;20040;-45
2020/12/31 13:51:33;;;;;;;;;;;4.40;83.20;;;;;;4927494;28;20511;-46
2020/12/31 13:54:00;;;;;;;;;;;4.40;83.10;;;;;;4910508;28;19973;-44
2020/12/31 13:56:26;;;;;;;;;;;4.40;83.20;;;;;;4934744;28;20009;-46
2020/12/31 13:58:52;;;;;;;;;;;4.50;83.20;;;;;;4929080;28;20371;-43
2020/12/31 14:01:19;;;;;;;;;;;4.50;83.30;;;;;;4929970;28;19941;-44
2020/12/31 14:03:46;;;;;;;;;;;4.40;83.30;;;;;;4928869;28;20016;-45
2020/12/31 14:06:13;;;;;;;;;;;4.50;83.40;;;;;;4934767;28;19926;-47
2020/12/31 14:08:42;;;;;;;;;;;4.50;83.30;;;;;;4925691;28;20037;-44
2020/12/31 14:11:11;;;;;;;;;;;4.50;83.40;;;;;;4925000;28;19934;-45
2020/12/31 14:13:38;;;;;;;;;;;4.50;83.50;;;;;;4926214;28;20507;-44
2020/12/31 14:16:05;;;;;;;;;;;4.50;83.70;;;;;;4919574;28;19969;-46
2020/12/31 14:18:31;;;;;;;;;;;4.50;83.60;;;;;;4936274;28;19941;-46
2020/12/31 14:20:58;;;;;;;;;;;4.50;83.60;;;;;;4930275;28;19973;-41
2020/12/31 14:23:24;;;;;;;;;;;4.50;83.60;;;;;;4927805;28;20119;-44
2020/12/31 14:25:51;;;;;;;;;;;4.50;83.50;;;;;;4930150;28;19933;-44
2020/12/31 14:28:18;;;;;;;;;;;4.50;83.40;;;;;;4927639;28;19930;-45
2020/12/31 14:30:46;;;;;;;;;;;4.50;83.50;;;;;;4929616;28;19925;-47
2020/12/31 14:33:12;;;;;;;;;;;4.50;83.70;;;;;;4927008;28;20378;-46
2020/12/31 14:35:39;;;;;;;;;;;4.50;83.80;;;;;;4930949;28;19930;-46
2020/12/31 14:38:06;;;;;;;;;;;4.50;83.50;;;;;;4937774;28;20008;-45